createdAt,value
2017-10-15T20:04:01.885Z,5.80
2017-10-15T20:06:28.864Z,7.20
2017-10-15T20:23:52.097Z,7.83
2017-10-15T20:26:19.038Z,8.40
2017-10-15T20:28:45.995Z,7.80
2017-10-15T20:31:13.697Z,7.77
2017-10-15T20:33:41.700Z,8.50
2017-10-15T20:36:08.668Z,8.37
2017-10-15T20:38:36.388Z,9.70
2017-10-15T20:41:03.348Z,8.87
2017-10-15T20:43:30.332Z,9.43
2017-10-15T20:45:58.216Z,9.40
2017-10-15T20:48:25.181Z,8.37
2017-10-15T20:50:52.110Z,9.30
2017-10-15T20:53:20.004Z,9.60
2017-10-15T20:55:47.120Z,9.37
2017-10-15T20:58:14.084Z,9.43
2017-10-15T21:00:41.020Z,9.40
2017-10-15T21:03:07.987Z,9.77
2017-10-15T21:05:37.215Z,9.83
2017-10-15T21:08:04.445Z,9.07
2017-10-15T21:10:31.416Z,9.17
2017-10-15T21:12:58.380Z,14.80
2017-10-15T21:15:26.116Z,13.70
2017-10-15T21:17:56.390Z,9.67
2017-10-15T21:20:23.381Z,9.90
2017-10-15T21:22:50.332Z,9.80
2017-10-15T21:25:22.098Z,10.07
2017-10-15T21:27:49.790Z,9.63
2017-10-15T21:30:17.691Z,10.07
2017-10-15T21:32:58.544Z,9.63
2017-10-15T21:35:25.517Z,9.90
2017-10-15T21:37:52.486Z,9.53
2017-10-15T21:40:19.478Z,9.90
2017-10-15T21:42:46.444Z,9.67
2017-10-15T21:45:13.436Z,9.70
2017-10-15T21:47:41.144Z,8.53
2017-10-15T21:50:08.101Z,9.10
2017-10-15T21:52:36.042Z,10.33
2017-10-15T21:55:03.017Z,10.70
2017-10-15T21:57:29.974Z,10.53
2017-10-15T21:59:56.941Z,11.10
2017-10-15T22:02:24.690Z,10.40
2017-10-15T22:04:51.633Z,11.43
2017-10-15T22:07:18.593Z,11.30
2017-10-15T22:09:46.297Z,11.10
2017-10-15T22:12:13.277Z,11.17
2017-10-15T22:14:41.231Z,11.30
2017-10-15T22:17:08.818Z,11.40
2017-10-15T22:19:36.082Z,12.07
2017-10-15T22:22:03.809Z,11.83
2017-10-15T22:24:30.747Z,11.70
2017-10-15T22:26:57.721Z,10.63
2017-10-15T22:29:24.669Z,10.57
2017-10-15T22:31:51.615Z,12.30
2017-10-15T22:34:18.604Z,10.87
2017-10-15T22:36:45.582Z,11.10
2017-10-15T22:39:12.553Z,11.03
2017-10-15T22:41:43.320Z,11.77
2017-10-15T22:44:10.306Z,11.03
2017-10-15T22:46:37.249Z,10.90
2017-10-15T22:49:05.163Z,11.27
2017-10-15T22:51:32.874Z,11.10
2017-10-15T22:53:59.825Z,12.57
2017-10-15T22:56:26.874Z,11.60
2017-10-15T22:58:53.817Z,11.13
2017-10-15T23:01:20.801Z,12.20
2017-10-15T23:03:48.500Z,11.83
2017-10-15T23:06:15.756Z,11.30
2017-10-15T23:08:42.692Z,12.47
2017-10-15T23:11:09.683Z,13.20
2017-10-15T23:13:36.619Z,13.40
2017-10-15T23:16:03.606Z,11.97
2017-10-15T23:18:30.557Z,11.80
2017-10-15T23:20:57.566Z,13.27
2017-10-15T23:23:24.574Z,13.37
2017-10-15T23:25:51.534Z,11.93
2017-10-15T23:28:18.549Z,11.90
2017-10-15T23:30:45.492Z,12.03
2017-10-15T23:33:12.463Z,12.20
2017-10-15T23:35:40.418Z,12.93
2017-10-15T23:41:04.967Z,13.17
2017-10-15T23:43:32.940Z,12.43
2017-10-15T23:45:59.889Z,12.50
2017-10-15T23:48:26.870Z,12.30
2017-10-15T23:50:53.808Z,14.00
2017-10-15T23:53:20.766Z,13.70
2017-10-15T23:55:47.709Z,13.73
2017-10-15T23:58:14.722Z,13.90
